sensor_id;sensor_type;location;lat;lon;timestamp;pressure;altitude;pressure_sealevel;temperature;humidity
3294;BME280;1659;51.470;6.770;2023-02-16T00:01:21;102303.00;;;6.34;70.60
3294;BME280;1659;51.470;6.770;2023-02-16T00:03:48;102297.72;;;6.33;70.16
3294;BME280;1659;51.470;6.770;2023-02-16T00:06:15;102301.13;;;6.30;70.36
3294;BME280;1659;51.470;6.770;2023-02-16T00:08:43;102307.19;;;6.26;70.73
3294;BME280;1659;51.470;6.770;2023-02-16T00:11:17;102296.63;;;6.24;70.48
3294;BME280;1659;51.470;6.770;2023-02-16T00:14:03;102300.00;;;6.19;70.67
3294;BME280;1659;51.470;6.770;2023-02-16T00:16:30;102308.69;;;6.16;70.95
3294;BME280;1659;51.470;6.770;2023-02-16T00:18:56;102292.84;;;6.13;70.37
3294;BME280;1659;51.470;6.770;2023-02-16T00:21:23;102286.69;;;6.11;70.90
3294;BME280;1659;51.470;6.770;2023-02-16T00:23:49;102294.56;;;6.11;71.25
3294;BME280;1659;51.470;6.770;2023-02-16T00:26:19;102293.59;;;6.08;71.07
3294;BME280;1659;51.470;6.770;2023-02-16T00:28:48;102295.25;;;6.04;71.03
3294;BME280;1659;51.470;6.770;2023-02-16T00:31:17;102285.63;;;6.03;71.19
3294;BME280;1659;51.470;6.770;2023-02-16T00:33:45;102294.28;;;6.00;71.18
3294;BME280;1659;51.470;6.770;2023-02-16T00:36:20;102296.88;;;5.99;70.88
3294;BME280;1659;51.470;6.770;2023-02-16T00:39:26;102282.84;;;5.97;71.20
3294;BME280;1659;51.470;6.770;2023-02-16T01:09:10;102276.91;;;5.71;71.40
3294;BME280;1659;51.470;6.770;2023-02-16T01:11:56;102277.72;;;5.68;71.71
3294;BME280;1659;51.470;6.770;2023-02-16T01:15:29;102276.88;;;5.69;71.78
3294;BME280;1659;51.470;6.770;2023-02-16T01:22:01;102282.84;;;5.63;71.93
3294;BME280;1659;51.470;6.770;2023-02-16T01:24:49;102280.22;;;5.63;72.14
3294;BME280;1659;51.470;6.770;2023-02-16T01:27:58;102283.72;;;5.64;71.85
3294;BME280;1659;51.470;6.770;2023-02-16T01:31:24;102280.22;;;5.63;72.10
3294;BME280;1659;51.470;6.770;2023-02-16T01:44:57;102267.66;;;5.52;72.38
3294;BME280;1659;51.470;6.770;2023-02-16T02:01:41;102263.72;;;5.34;72.06
3294;BME280;1659;51.470;6.770;2023-02-16T02:04:27;102263.63;;;5.31;72.28
3294;BME280;1659;51.470;6.770;2023-02-16T02:07:17;102264.44;;;5.28;72.41
3294;BME280;1659;51.470;6.770;2023-02-16T02:13:20;102259.16;;;5.27;72.20
3294;BME280;1659;51.470;6.770;2023-02-16T02:15:47;102255.69;;;5.28;72.41
3294;BME280;1659;51.470;6.770;2023-02-16T02:18:15;102247.75;;;5.25;72.55
3294;BME280;1659;51.470;6.770;2023-02-16T02:20:55;102252.16;;;5.26;72.80
3294;BME280;1659;51.470;6.770;2023-02-16T02:23:55;102241.59;;;5.23;73.12
3294;BME280;1659;51.470;6.770;2023-02-16T02:27:02;102246.88;;;5.24;72.54
3294;BME280;1659;51.470;6.770;2023-02-16T02:29:59;102246.81;;;5.23;72.78
3294;BME280;1659;51.470;6.770;2023-02-16T02:32:41;102249.41;;;5.21;73.07
3294;BME280;1659;51.470;6.770;2023-02-16T02:35:28;102239.75;;;5.20;73.16
3294;BME280;1659;51.470;6.770;2023-02-16T02:38:05;102238.03;;;5.21;73.24
3294;BME280;1659;51.470;6.770;2023-02-16T02:40:43;102232.72;;;5.18;72.98
3294;BME280;1659;51.470;6.770;2023-02-16T02:43:17;102228.28;;;5.17;73.41
3294;BME280;1659;51.470;6.770;2023-02-16T02:45:48;102212.53;;;5.15;73.17
3294;BME280;1659;51.470;6.770;2023-02-16T02:48:17;102210.72;;;5.13;72.93
3294;BME280;1659;51.470;6.770;2023-02-16T02:50:48;102199.38;;;5.12;73.20
3294;BME280;1659;51.470;6.770;2023-02-16T02:53:36;102206.44;;;5.16;73.54
3294;BME280;1659;51.470;6.770;2023-02-16T02:56:06;102206.50;;;5.18;73.53
3294;BME280;1659;51.470;6.770;2023-02-16T02:58:56;102205.63;;;5.17;73.49
3294;BME280;1659;51.470;6.770;2023-02-16T03:12:33;102194.09;;;5.10;73.11
3294;BME280;1659;51.470;6.770;2023-02-16T03:15:42;102195.00;;;5.13;73.45
3294;BME280;1659;51.470;6.770;2023-02-16T03:18:28;102188.91;;;5.14;73.18
3294;BME280;1659;51.470;6.770;2023-02-16T04:33:46;102196.25;;;4.94;73.30
3294;BME280;1659;51.470;6.770;2023-02-16T04:36:13;102196.38;;;4.98;72.93
3294;BME280;1659;51.470;6.770;2023-02-16T04:38:41;102194.69;;;5.00;73.40
3294;BME280;1659;51.470;6.770;2023-02-16T04:41:11;102200.84;;;5.02;73.17
3294;BME280;1659;51.470;6.770;2023-02-16T04:47:33;102191.88;;;4.94;73.70
3294;BME280;1659;51.470;6.770;2023-02-16T04:50:01;102187.53;;;4.95;73.65
3294;BME280;1659;51.470;6.770;2023-02-16T04:52:28;102199.69;;;4.92;73.45
3294;BME280;1659;51.470;6.770;2023-02-16T04:54:55;102198.81;;;4.92;73.89
3294;BME280;1659;51.470;6.770;2023-02-16T04:57:21;102188.19;;;4.87;73.70
3294;BME280;1659;51.470;6.770;2023-02-16T04:59:48;102188.13;;;4.84;73.30
3294;BME280;1659;51.470;6.770;2023-02-16T05:02:15;102191.44;;;4.79;73.51
3294;BME280;1659;51.470;6.770;2023-02-16T05:04:41;102191.34;;;4.74;73.67
3294;BME280;1659;51.470;6.770;2023-02-16T05:07:09;102192.06;;;4.70;73.67
3294;BME280;1659;51.470;6.770;2023-02-16T05:09:36;102185.88;;;4.66;73.78
3294;BME280;1659;51.470;6.770;2023-02-16T05:12:02;102186.69;;;4.64;73.74
3294;BME280;1659;51.470;6.770;2023-02-16T05:14:46;102184.88;;;4.63;73.86
3294;BME280;1659;51.470;6.770;2023-02-16T05:17:15;102191.09;;;4.65;74.09
3294;BME280;1659;51.470;6.770;2023-02-16T05:19:42;102185.84;;;4.65;73.96
3294;BME280;1659;51.470;6.770;2023-02-16T05:22:12;102191.09;;;4.65;74.00
3294;BME280;1659;51.470;6.770;2023-02-16T05:24:39;102194.53;;;4.64;74.05
3294;BME280;1659;51.470;6.770;2023-02-16T05:27:09;102184.84;;;4.61;74.01
3294;BME280;1659;51.470;6.770;2023-02-16T05:29:36;102185.63;;;4.57;74.04
3294;BME280;1659;51.470;6.770;2023-02-16T05:32:03;102189.09;;;4.56;74.25
3294;BME280;1659;51.470;6.770;2023-02-16T05:34:29;102187.34;;;4.57;74.57
3294;BME280;1659;51.470;6.770;2023-02-16T05:36:56;102200.44;;;4.57;74.74
3294;BME280;1659;51.470;6.770;2023-02-16T05:39:24;102196.09;;;4.57;74.51
3294;BME280;1659;51.470;6.770;2023-02-16T05:41:50;102200.50;;;4.58;74.48
3294;BME280;1659;51.470;6.770;2023-02-16T05:44:17;102203.09;;;4.58;74.29
3294;BME280;1659;51.470;6.770;2023-02-16T05:46:44;102196.22;;;4.62;74.39
3294;BME280;1659;51.470;6.770;2023-02-16T05:49:12;102192.78;;;4.64;74.58
3294;BME280;1659;51.470;6.770;2023-02-16T05:51:38;102196.34;;;4.66;74.61
3294;BME280;1659;51.470;6.770;2023-02-16T05:54:05;102187.69;;;4.69;74.37
3294;BME280;1659;51.470;6.770;2023-02-16T05:56:33;102199.09;;;4.71;74.37
3294;BME280;1659;51.470;6.770;2023-02-16T05:59:00;102192.16;;;4.73;74.27
3294;BME280;1659;51.470;6.770;2023-02-16T06:01:27;102186.19;;;4.77;74.49
3294;BME280;1659;51.470;6.770;2023-02-16T06:03:53;102177.47;;;4.78;74.25
3294;BME280;1659;51.470;6.770;2023-02-16T06:06:20;102185.31;;;4.78;74.18
3294;BME280;1659;51.470;6.770;2023-02-16T06:08:47;102180.09;;;4.78;74.50
3294;BME280;1659;51.470;6.770;2023-02-16T06:11:13;102185.31;;;4.78;74.02
3294;BME280;1659;51.470;6.770;2023-02-16T06:13:59;102178.41;;;4.80;74.10
3294;BME280;1659;51.470;6.770;2023-02-16T06:16:27;102181.97;;;4.82;74.34
3294;BME280;1659;51.470;6.770;2023-02-16T06:18:54;102197.69;;;4.84;74.18
3294;BME280;1659;51.470;6.770;2023-02-16T06:21:22;102194.28;;;4.86;74.11
3294;BME280;1659;51.470;6.770;2023-02-16T06:23:48;102183.00;;;4.89;74.02
3294;BME280;1659;51.470;6.770;2023-02-16T06:26:16;102183.09;;;4.92;74.35
3294;BME280;1659;51.470;6.770;2023-02-16T06:28:42;102182.31;;;4.96;74.30
3294;BME280;1659;51.470;6.770;2023-02-16T06:31:10;102178.03;;;4.98;74.06
3294;BME280;1659;51.470;6.770;2023-02-16T06:33:37;102180.72;;;5.01;74.08
3294;BME280;1659;51.470;6.770;2023-02-16T06:36:04;102178.19;;;5.04;73.91
3294;BME280;1659;51.470;6.770;2023-02-16T06:38:31;102188.66;;;5.04;73.78
3294;BME280;1659;51.470;6.770;2023-02-16T06:40:57;102184.34;;;5.06;73.83
3294;BME280;1659;51.470;6.770;2023-02-16T06:43:24;102178.28;;;5.07;73.39
3294;BME280;1659;51.470;6.770;2023-02-16T06:45:51;102180.94;;;5.09;73.86
3294;BME280;1659;51.470;6.770;2023-02-16T06:48:19;102189.75;;;5.13;73.43
3294;BME280;1659;51.470;6.770;2023-02-16T06:50:45;102190.69;;;5.15;73.58
3294;BME280;1659;51.470;6.770;2023-02-16T06:53:12;102188.19;;;5.19;73.11
3294;BME280;1659;51.470;6.770;2023-02-16T06:55:38;102190.97;;;5.25;73.30
3294;BME280;1659;51.470;6.770;2023-02-16T06:58:06;102181.63;;;5.35;73.58
3294;BME280;1659;51.470;6.770;2023-02-16T07:00:33;102178.34;;;5.44;73.19
3294;BME280;1659;51.470;6.770;2023-02-16T07:03:00;102172.19;;;5.42;72.46
3294;BME280;1659;51.470;6.770;2023-02-16T07:05:28;102176.50;;;5.41;72.80
3294;BME280;1659;51.470;6.770;2023-02-16T07:07:54;102189.63;;;5.41;72.71
3294;BME280;1659;51.470;6.770;2023-02-16T07:10:21;102187.03;;;5.43;72.64
3294;BME280;1659;51.470;6.770;2023-02-16T07:12:48;102175.72;;;5.44;72.88
3294;BME280;1659;51.470;6.770;2023-02-16T07:15:14;102182.75;;;5.46;72.71
3294;BME280;1659;51.470;6.770;2023-02-16T07:17:41;102168.81;;;5.47;72.60
3294;BME280;1659;51.470;6.770;2023-02-16T07:20:08;102166.28;;;5.51;72.28
3294;BME280;1659;51.470;6.770;2023-02-16T07:22:38;102171.56;;;5.54;72.34
3294;BME280;1659;51.470;6.770;2023-02-16T07:25:05;102170.72;;;5.55;72.34
3294;BME280;1659;51.470;6.770;2023-02-16T07:27:32;102182.19;;;5.58;71.99
3294;BME280;1659;51.470;6.770;2023-02-16T07:29:58;102190.13;;;5.61;72.46
3294;BME280;1659;51.470;6.770;2023-02-16T07:32:25;102180.56;;;5.63;71.90
3294;BME280;1659;51.470;6.770;2023-02-16T07:34:51;102196.41;;;5.68;71.39
3294;BME280;1659;51.470;6.770;2023-02-16T07:37:18;102193.81;;;5.68;71.62
3294;BME280;1659;51.470;6.770;2023-02-16T07:39:46;102196.44;;;5.70;71.57
3294;BME280;1659;51.470;6.770;2023-02-16T07:42:12;102187.72;;;5.71;71.50
3294;BME280;1659;51.470;6.770;2023-02-16T07:44:39;102186.94;;;5.73;71.54
3294;BME280;1659;51.470;6.770;2023-02-16T07:47:05;102193.94;;;5.74;71.08
3294;BME280;1659;51.470;6.770;2023-02-16T07:49:32;102198.38;;;5.77;71.64
3294;BME280;1659;51.470;6.770;2023-02-16T07:51:58;102194.09;;;5.80;71.12
3294;BME280;1659;51.470;6.770;2023-02-16T07:54:25;102202.06;;;5.85;71.45
3294;BME280;1659;51.470;6.770;2023-02-16T07:56:52;102207.50;;;5.93;70.84
3294;BME280;1659;51.470;6.770;2023-02-16T07:59:19;102211.25;;;6.02;70.87
3294;BME280;1659;51.470;6.770;2023-02-16T08:01:45;102200.06;;;6.11;70.61
3294;BME280;1659;51.470;6.770;2023-02-16T08:04:12;102193.25;;;6.19;70.98
3294;BME280;1659;51.470;6.770;2023-02-16T08:06:38;102188.25;;;6.30;70.72
3294;BME280;1659;51.470;6.770;2023-02-16T08:09:05;102188.44;;;6.39;70.59
3294;BME280;1659;51.470;6.770;2023-02-16T08:11:32;102212.22;;;6.46;69.74
3294;BME280;1659;51.470;6.770;2023-02-16T08:14:00;102202.66;;;6.49;69.71
3294;BME280;1659;51.470;6.770;2023-02-16T08:16:27;102195.66;;;6.50;70.15
3294;BME280;1659;51.470;6.770;2023-02-16T08:18:55;102197.44;;;6.51;69.74
3294;BME280;1659;51.470;6.770;2023-02-16T08:21:23;102194.81;;;6.51;69.82
3294;BME280;1659;51.470;6.770;2023-02-16T08:23:53;102204.44;;;6.50;69.46
3294;BME280;1659;51.470;6.770;2023-02-16T08:26:24;102198.31;;;6.51;69.54
3294;BME280;1659;51.470;6.770;2023-02-16T08:28:51;102202.81;;;6.55;69.31
3294;BME280;1659;51.470;6.770;2023-02-16T08:31:22;102202.91;;;6.61;69.39
3294;BME280;1659;51.470;6.770;2023-02-16T08:33:49;102210.03;;;6.67;69.24
3294;BME280;1659;51.470;6.770;2023-02-16T08:36:17;102198.75;;;6.71;69.28
3294;BME280;1659;51.470;6.770;2023-02-16T08:38:44;102203.19;;;6.75;68.79
3294;BME280;1659;51.470;6.770;2023-02-16T08:41:14;102203.34;;;6.83;68.47
3294;BME280;1659;51.470;6.770;2023-02-16T08:43:41;102201.81;;;6.94;68.76
3294;BME280;1659;51.470;6.770;2023-02-16T08:46:07;102193.53;;;7.20;68.39
3294;BME280;1659;51.470;6.770;2023-02-16T08:48:36;102189.56;;;7.44;68.00
3294;BME280;1659;51.470;6.770;2023-02-16T08:51:04;102188.16;;;7.64;66.73
3294;BME280;1659;51.470;6.770;2023-02-16T08:53:31;102200.91;;;7.94;66.67
3294;BME280;1659;51.470;6.770;2023-02-16T08:56:00;102185.72;;;8.38;65.53
3294;BME280;1659;51.470;6.770;2023-02-16T08:58:28;102193.19;;;8.71;65.12
3294;BME280;1659;51.470;6.770;2023-02-16T09:00:55;102183.91;;;9.08;64.37
3294;BME280;1659;51.470;6.770;2023-02-16T09:03:22;102186.75;;;9.29;63.69
3294;BME280;1659;51.470;6.770;2023-02-16T09:05:51;102190.19;;;9.20;63.15
3294;BME280;1659;51.470;6.770;2023-02-16T09:08:19;102196.97;;;8.96;63.53
3294;BME280;1659;51.470;6.770;2023-02-16T09:10:45;102193.28;;;8.77;63.42
3294;BME280;1659;51.470;6.770;2023-02-16T09:13:12;102197.53;;;8.67;63.86
3294;BME280;1659;51.470;6.770;2023-02-16T09:15:40;102198.22;;;8.53;64.11
3294;BME280;1659;51.470;6.770;2023-02-16T09:18:07;102193.78;;;8.48;64.32
3294;BME280;1659;51.470;6.770;2023-02-16T09:20:35;102193.31;;;8.83;63.49
3294;BME280;1659;51.470;6.770;2023-02-16T09:23:04;102193.84;;;9.34;62.45
3294;BME280;1659;51.470;6.770;2023-02-16T09:25:33;102186.31;;;9.83;61.76
3294;BME280;1659;51.470;6.770;2023-02-16T09:28:00;102197.91;;;10.02;61.17
3294;BME280;1659;51.470;6.770;2023-02-16T09:30:27;102204.91;;;9.93;61.03
3294;BME280;1659;51.470;6.770;2023-02-16T09:32:53;102212.69;;;9.76;61.15
3294;BME280;1659;51.470;6.770;2023-02-16T09:35:20;102212.44;;;9.47;61.63
3294;BME280;1659;51.470;6.770;2023-02-16T09:37:47;102212.28;;;9.30;61.97
3294;BME280;1659;51.470;6.770;2023-02-16T09:40:15;102222.59;;;9.08;62.40
3294;BME280;1659;51.470;6.770;2023-02-16T09:42:56;102218.00;;;8.88;62.55
3294;BME280;1659;51.470;6.770;2023-02-16T09:45:24;102223.06;;;8.73;62.94
3294;BME280;1659;51.470;6.770;2023-02-16T09:47:51;102235.19;;;8.59;63.14
3294;BME280;1659;51.470;6.770;2023-02-16T09:50:21;102237.63;;;8.43;63.29
3294;BME280;1659;51.470;6.770;2023-02-16T09:52:52;102240.06;;;8.32;63.09
3294;BME280;1659;51.470;6.770;2023-02-16T09:55:24;102242.63;;;8.28;63.71
3294;BME280;1659;51.470;6.770;2023-02-16T09:58:01;102249.66;;;8.27;63.75
3294;BME280;1659;51.470;6.770;2023-02-16T10:00:43;102246.16;;;8.27;64.05
3294;BME280;1659;51.470;6.770;2023-02-16T10:03:34;102239.06;;;8.24;63.64
3294;BME280;1659;51.470;6.770;2023-02-16T10:06:26;102225.88;;;8.21;64.24
3294;BME280;1659;51.470;6.770;2023-02-16T10:08:58;102232.88;;;8.21;63.90
3294;BME280;1659;51.470;6.770;2023-02-16T10:11:33;102231.13;;;8.20;64.33
3294;BME280;1659;51.470;6.770;2023-02-16T10:14:10;102224.94;;;8.18;64.56
3294;BME280;1659;51.470;6.770;2023-02-16T10:16:42;102224.06;;;8.19;64.26
3294;BME280;1659;51.470;6.770;2023-02-16T10:19:18;102232.91;;;8.22;64.75
3294;BME280;1659;51.470;6.770;2023-02-16T10:21:48;102232.09;;;8.25;64.59
3294;BME280;1659;51.470;6.770;2023-02-16T10:24:16;102233.88;;;8.29;65.06
3294;BME280;1659;51.470;6.770;2023-02-16T10:26:47;102233.03;;;8.30;65.03
3294;BME280;1659;51.470;6.770;2023-02-16T10:29:19;102245.34;;;8.32;64.90
3294;BME280;1659;51.470;6.770;2023-02-16T10:31:55;102249.78;;;8.37;64.91
3294;BME280;1659;51.470;6.770;2023-02-16T10:34:37;102242.84;;;8.42;64.95
3294;BME280;1659;51.470;6.770;2023-02-16T10:37:19;102239.44;;;8.47;65.07
3294;BME280;1659;51.470;6.770;2023-02-16T10:39:54;102240.41;;;8.56;64.75
3294;BME280;1659;51.470;6.770;2023-02-16T10:42:33;102237.00;;;8.63;65.02
3294;BME280;1659;51.470;6.770;2023-02-16T10:45:15;102241.53;;;8.75;64.46
3294;BME280;1659;51.470;6.770;2023-02-16T10:47:44;102239.94;;;8.87;64.27
3294;BME280;1659;51.470;6.770;2023-02-16T10:50:19;102235.75;;;9.05;64.25
3294;BME280;1659;51.470;6.770;2023-02-16T10:52:47;102232.38;;;9.18;64.04
3294;BME280;1659;51.470;6.770;2023-02-16T10:55:15;102228.06;;;9.26;64.08
3294;BME280;1659;51.470;6.770;2023-02-16T10:57:49;102224.69;;;9.41;63.61
3294;BME280;1659;51.470;6.770;2023-02-16T11:00:22;102219.53;;;9.51;63.70
3294;BME280;1659;51.470;6.770;2023-02-16T11:02:51;102209.88;;;9.57;63.64
3294;BME280;1659;51.470;6.770;2023-02-16T11:05:31;102217.81;;;9.59;63.68
3294;BME280;1659;51.470;6.770;2023-02-16T11:07:59;102207.28;;;9.60;63.46
3294;BME280;1659;51.470;6.770;2023-02-16T11:10:35;102209.06;;;9.61;63.47
3294;BME280;1659;51.470;6.770;2023-02-16T11:13:04;102207.25;;;9.59;63.60
3294;BME280;1659;51.470;6.770;2023-02-16T11:15:33;102209.84;;;9.53;63.93
3294;BME280;1659;51.470;6.770;2023-02-16T11:18:02;102204.53;;;9.48;63.82
3294;BME280;1659;51.470;6.770;2023-02-16T11:20:34;102198.34;;;9.46;64.07
3294;BME280;1659;51.470;6.770;2023-02-16T11:23:12;102192.16;;;9.41;64.28
3294;BME280;1659;51.470;6.770;2023-02-16T11:25:39;102189.44;;;9.35;64.53
3294;BME280;1659;51.470;6.770;2023-02-16T11:28:08;102189.38;;;9.27;64.57
3294;BME280;1659;51.470;6.770;2023-02-16T11:30:38;102175.25;;;9.20;65.02
3294;BME280;1659;51.470;6.770;2023-02-16T11:33:20;102168.19;;;9.18;65.29
3294;BME280;1659;51.470;6.770;2023-02-16T11:35:47;102178.78;;;9.19;65.20
3294;BME280;1659;51.470;6.770;2023-02-16T11:38:25;102177.91;;;9.23;65.65
3294;BME280;1659;51.470;6.770;2023-02-16T11:40:53;102184.09;;;9.25;65.54
3294;BME280;1659;51.470;6.770;2023-02-16T11:43:21;102178.84;;;9.27;65.75
3294;BME280;1659;51.470;6.770;2023-02-16T11:46:03;102179.69;;;9.24;65.76
3294;BME280;1659;51.470;6.770;2023-02-16T11:48:32;102184.97;;;9.24;66.29
3294;BME280;1659;51.470;6.770;2023-02-16T11:51:00;102172.59;;;9.20;66.43
3294;BME280;1659;51.470;6.770;2023-02-16T11:53:29;102176.94;;;9.15;66.88
3294;BME280;1659;51.470;6.770;2023-02-16T11:56:21;102170.75;;;9.10;67.05
3294;BME280;1659;51.470;6.770;2023-02-16T11:59:05;102168.97;;;9.06;67.50
3294;BME280;1659;51.470;6.770;2023-02-16T12:01:43;102155.72;;;9.03;68.00
3294;BME280;1659;51.470;6.770;2023-02-16T12:04:20;102155.75;;;9.04;68.42
3294;BME280;1659;51.470;6.770;2023-02-16T12:07:00;102147.00;;;9.10;68.74
3294;BME280;1659;51.470;6.770;2023-02-16T12:09:38;102156.75;;;9.17;68.48
3294;BME280;1659;51.470;6.770;2023-02-16T12:12:12;102156.81;;;9.23;68.56
3294;BME280;1659;51.470;6.770;2023-02-16T12:14:54;102157.75;;;9.30;68.75
3294;BME280;1659;51.470;6.770;2023-02-16T12:17:36;102164.00;;;9.38;68.89
3294;BME280;1659;51.470;6.770;2023-02-16T12:20:19;102156.09;;;9.41;69.06
3294;BME280;1659;51.470;6.770;2023-02-16T12:22:48;102164.09;;;9.49;69.11
3294;BME280;1659;51.470;6.770;2023-02-16T12:25:25;102161.47;;;9.55;69.14
3294;BME280;1659;51.470;6.770;2023-02-16T12:28:02;102162.38;;;9.59;69.16
3294;BME280;1659;51.470;6.770;2023-02-16T12:30:47;102157.13;;;9.62;69.08
3294;BME280;1659;51.470;6.770;2023-02-16T12:33:37;102157.19;;;9.68;69.07
3294;BME280;1659;51.470;6.770;2023-02-16T12:36:21;102162.53;;;9.77;69.12
3294;BME280;1659;51.470;6.770;2023-02-16T12:38:57;102166.13;;;9.86;69.01
3294;BME280;1659;51.470;6.770;2023-02-16T12:41:34;102167.06;;;9.98;68.75
3294;BME280;1659;51.470;6.770;2023-02-16T12:44:11;102163.63;;;10.09;68.56
3294;BME280;1659;51.470;6.770;2023-02-16T12:46:43;102165.41;;;10.14;68.71
3294;BME280;1659;51.470;6.770;2023-02-16T12:49:15;102166.34;;;10.24;68.61
3294;BME280;1659;51.470;6.770;2023-02-16T12:51:47;102156.72;;;10.32;68.59
3294;BME280;1659;51.470;6.770;2023-02-16T12:54:16;102150.50;;;10.29;68.69
3294;BME280;1659;51.470;6.770;2023-02-16T12:56:46;102150.50;;;10.24;68.93
3294;BME280;1659;51.470;6.770;2023-02-16T12:59:20;102145.16;;;10.12;69.23
3294;BME280;1659;51.470;6.770;2023-02-16T13:01:51;102137.16;;;10.04;69.38
3294;BME280;1659;51.470;6.770;2023-02-16T13:04:24;102134.53;;;10.04;69.46
3294;BME280;1659;51.470;6.770;2023-02-16T13:06:58;102131.91;;;10.07;69.44
3294;BME280;1659;51.470;6.770;2023-02-16T13:09:35;102135.44;;;10.11;69.48
3294;BME280;1659;51.470;6.770;2023-02-16T13:12:07;102126.66;;;10.15;69.48
3294;BME280;1659;51.470;6.770;2023-02-16T13:14:38;102121.41;;;10.21;69.50
3294;BME280;1659;51.470;6.770;2023-02-16T13:17:11;102110.88;;;10.26;69.63
3294;BME280;1659;51.470;6.770;2023-02-16T13:19:41;102113.56;;;10.32;69.54
3294;BME280;1659;51.470;6.770;2023-02-16T13:22:25;102118.88;;;10.36;69.72
3294;BME280;1659;51.470;6.770;2023-02-16T13:27:57;102101.28;;;10.42;69.81
3294;BME280;1659;51.470;6.770;2023-02-16T13:30:42;102097.75;;;10.44;70.02
3294;BME280;1659;51.470;6.770;2023-02-16T13:33:25;102093.31;;;10.45;70.00
3294;BME280;1659;51.470;6.770;2023-02-16T13:36:16;102088.91;;;10.36;70.27
3294;BME280;1659;51.470;6.770;2023-02-16T13:42:05;102085.28;;;10.18;70.76
3294;BME280;1659;51.470;6.770;2023-02-16T13:44:45;102087.03;;;10.12;70.95
3294;BME280;1659;51.470;6.770;2023-02-16T13:47:25;102081.69;;;10.02;71.11
3294;BME280;1659;51.470;6.770;2023-02-16T13:49:57;102100.16;;;9.96;71.37
3294;BME280;1659;51.470;6.770;2023-02-16T13:52:29;102101.88;;;9.90;71.29
3294;BME280;1659;51.470;6.770;2023-02-16T13:54:57;102096.56;;;9.80;71.53
3294;BME280;1659;51.470;6.770;2023-02-16T13:57:56;102078.00;;;9.70;72.04
3294;BME280;1659;51.470;6.770;2023-02-16T14:00:26;102053.25;;;9.49;73.01
3294;BME280;1659;51.470;6.770;2023-02-16T14:02:56;102043.44;;;9.28;74.35
3294;BME280;1659;51.470;6.770;2023-02-16T14:05:28;102047.69;;;9.09;74.96
3294;BME280;1659;51.470;6.770;2023-02-16T14:08:11;102053.75;;;8.99;75.38
3294;BME280;1659;51.470;6.770;2023-02-16T14:10:59;102049.34;;;8.95;75.79
3294;BME280;1659;51.470;6.770;2023-02-16T14:13:28;102040.56;;;8.97;75.71
3294;BME280;1659;51.470;6.770;2023-02-16T14:15:57;102032.78;;;9.17;76.33
3294;BME280;1659;51.470;6.770;2023-02-16T14:18:29;102033.88;;;9.44;76.55
3294;BME280;1659;51.470;6.770;2023-02-16T14:21:03;102025.22;;;9.67;76.83
3294;BME280;1659;51.470;6.770;2023-02-16T14:23:33;102019.13;;;9.86;76.89
3294;BME280;1659;51.470;6.770;2023-02-16T14:26:02;102010.44;;;10.16;76.95
3294;BME280;1659;51.470;6.770;2023-02-16T14:28:56;102001.75;;;10.71;76.79
3294;BME280;1659;51.470;6.770;2023-02-16T14:31:25;102010.53;;;11.23;75.99
3294;BME280;1659;51.470;6.770;2023-02-16T14:33:59;102008.66;;;11.71;75.38
3294;BME280;1659;51.470;6.770;2023-02-16T14:36:29;102000.59;;;12.09;74.80
3294;BME280;1659;51.470;6.770;2023-02-16T14:38:57;102000.50;;;12.25;74.21
3294;BME280;1659;51.470;6.770;2023-02-16T14:41:27;102009.25;;;12.33;73.86
3294;BME280;1659;51.470;6.770;2023-02-16T14:44:11;102004.88;;;12.31;73.36
3294;BME280;1659;51.470;6.770;2023-02-16T14:46:50;102011.06;;;12.28;73.21
3294;BME280;1659;51.470;6.770;2023-02-16T14:49:58;102003.94;;;12.39;72.26
3294;BME280;1659;51.470;6.770;2023-02-16T14:52:47;101992.50;;;12.33;72.12
3294;BME280;1659;51.470;6.770;2023-02-16T14:55:57;101988.16;;;12.19;71.59
3294;BME280;1659;51.470;6.770;2023-02-16T14:58:29;101984.69;;;12.06;71.46
3294;BME280;1659;51.470;6.770;2023-02-16T15:01:03;101979.44;;;11.97;71.54
3294;BME280;1659;51.470;6.770;2023-02-16T15:03:42;101968.91;;;11.82;71.09
3294;BME280;1659;51.470;6.770;2023-02-16T15:06:17;101960.09;;;11.74;71.20
3294;BME280;1659;51.470;6.770;2023-02-16T15:08:51;101955.66;;;11.74;71.50
3294;BME280;1659;51.470;6.770;2023-02-16T15:11:26;101946.78;;;11.84;71.36
3294;BME280;1659;51.470;6.770;2023-02-16T15:13:53;101952.09;;;11.94;71.28
3294;BME280;1659;51.470;6.770;2023-02-16T15:16:21;101952.91;;;12.03;70.77
3294;BME280;1659;51.470;6.770;2023-02-16T15:18:50;101948.44;;;12.16;70.50
3294;BME280;1659;51.470;6.770;2023-02-16T15:21:20;101953.69;;;12.21;70.56
3294;BME280;1659;51.470;6.770;2023-02-16T15:23:51;101955.41;;;12.26;70.42
3294;BME280;1659;51.470;6.770;2023-02-16T15:26:19;101966.06;;;12.20;70.80
3294;BME280;1659;51.470;6.770;2023-02-16T15:28:52;101970.50;;;12.21;70.63
3294;BME280;1659;51.470;6.770;2023-02-16T15:31:19;101960.78;;;12.14;70.55
3294;BME280;1659;51.470;6.770;2023-02-16T15:33:54;101955.56;;;12.03;70.86
3294;BME280;1659;51.470;6.770;2023-02-16T15:36:26;101963.56;;;11.93;71.11
3294;BME280;1659;51.470;6.770;2023-02-16T15:38:59;101968.84;;;11.88;71.18
3294;BME280;1659;51.470;6.770;2023-02-16T15:41:28;101960.03;;;11.83;71.30
3294;BME280;1659;51.470;6.770;2023-02-16T15:43:56;101953.00;;;11.77;71.60
3294;BME280;1659;51.470;6.770;2023-02-16T15:46:27;101955.72;;;11.68;71.52
3294;BME280;1659;51.470;6.770;2023-02-16T15:48:55;101950.47;;;11.59;72.00
3294;BME280;1659;51.470;6.770;2023-02-16T15:51:25;101947.81;;;11.48;72.04
3294;BME280;1659;51.470;6.770;2023-02-16T15:53:54;101948.75;;;11.39;72.34
3294;BME280;1659;51.470;6.770;2023-02-16T15:56:28;101937.31;;;11.29;72.80
3294;BME280;1659;51.470;6.770;2023-02-16T15:58:57;101937.31;;;11.23;73.10
3294;BME280;1659;51.470;6.770;2023-02-16T16:01:27;101934.72;;;11.19;73.33
3294;BME280;1659;51.470;6.770;2023-02-16T16:03:58;101948.81;;;11.14;73.52
3294;BME280;1659;51.470;6.770;2023-02-16T16:06:31;101947.94;;;11.11;73.42
3294;BME280;1659;51.470;6.770;2023-02-16T16:08:58;101943.53;;;11.08;73.86
3294;BME280;1659;51.470;6.770;2023-02-16T16:11:27;101943.53;;;11.07;74.18
3294;BME280;1659;51.470;6.770;2023-02-16T16:13:54;101943.53;;;11.05;74.15
3294;BME280;1659;51.470;6.770;2023-02-16T16:16:21;101942.69;;;11.05;74.41
3294;BME280;1659;51.470;6.770;2023-02-16T16:18:50;101943.53;;;11.05;74.40
3294;BME280;1659;51.470;6.770;2023-02-16T16:21:24;101933.84;;;11.04;74.61
3294;BME280;1659;51.470;6.770;2023-02-16T16:23:59;101942.66;;;11.03;74.68